Time;durP1;ratioP1;P1;durP2;ratioP2;P2;SDS_P1;SDS_P2;PMS_P1;PMS_P2;Temp;Humidity;BMP_temperature;BMP_pressure;BME280_temperature;BME280_humidity;BME280_pressure;Samples;Min_cycle;Max_cycle;Signal;HPM_P1;HPM_P2
2023/02/27 00:01:48;;;;;;;4.53;1.70;;;2.50;99.90;;;;;;5023283;28;25065;-75
2023/02/27 00:04:13;;;;;;;7.05;2.00;;;2.70;99.90;;;;;;5035122;28;25059;-76
2023/02/27 00:06:39;;;;;;;4.10;1.05;;;2.60;99.90;;;;;;5026326;28;25071;-75
2023/02/27 00:09:05;;;;;;;3.67;1.55;;;2.50;99.90;;;;;;5042495;28;25079;-75
2023/02/27 00:11:30;;;;;;;11.07;1.35;;;2.40;99.90;;;;;;5043448;28;25133;-72
2023/02/27 00:13:57;;;;;;;6.70;1.50;;;2.30;99.90;;;;;;5032782;28;25072;-74
2023/02/27 00:16:22;;;;;;;6.43;1.30;;;2.40;99.90;;;;;;5030921;28;25132;-74
2023/02/27 00:18:48;;;;;;;7.00;2.70;;;2.30;99.90;;;;;;5024618;28;25074;-75
2023/02/27 00:21:13;;;;;;;6.25;1.58;;;2.40;99.90;;;;;;5020885;28;25146;-73
2023/02/27 00:23:39;;;;;;;6.30;1.52;;;2.30;99.90;;;;;;5033503;28;25139;-73
2023/02/27 00:26:04;;;;;;;10.10;1.42;;;2.30;99.90;;;;;;5022172;28;25074;-73
2023/02/27 00:28:30;;;;;;;5.80;1.60;;;2.30;99.90;;;;;;5033394;28;25029;-71
2023/02/27 00:30:56;;;;;;;4.60;1.40;;;2.30;99.90;;;;;;5033343;28;25068;-72
2023/02/27 00:33:21;;;;;;;4.82;1.50;;;2.30;99.90;;;;;;5028207;28;25080;-74
2023/02/27 00:35:57;;;;;;;4.93;1.13;;;2.30;99.90;;;;;;5039434;28;25127;-73
2023/02/27 00:38:23;;;;;;;2.90;1.38;;;2.30;99.90;;;;;;5025260;28;25067;-72
2023/02/27 00:40:50;;;;;;;5.82;1.45;;;2.40;99.90;;;;;;5032222;28;25079;-71
2023/02/27 00:43:16;;;;;;;3.42;1.20;;;2.40;99.90;;;;;;5033742;28;25141;-73
2023/02/27 00:45:42;;;;;;;5.43;1.27;;;2.30;99.90;;;;;;5042443;28;25068;-71
2023/02/27 00:48:07;;;;;;;5.38;1.55;;;2.30;99.90;;;;;;5050819;28;25095;-73
2023/02/27 00:50:33;;;;;;;2.08;1.10;;;2.30;99.90;;;;;;5051436;28;25067;-71
2023/02/27 00:52:59;;;;;;;7.80;1.20;;;2.30;99.90;;;;;;5037001;28;25083;-71
2023/02/27 00:55:24;;;;;;;7.35;1.42;;;2.30;99.90;;;;;;5021743;28;25064;-73
2023/02/27 00:57:50;;;;;;;3.03;1.10;;;2.30;99.90;;;;;;5038849;28;25065;-72
2023/02/27 01:00:16;;;;;;;6.25;1.30;;;2.40;99.90;;;;;;5029647;28;25171;-72
2023/02/27 01:02:41;;;;;;;10.35;1.73;;;2.40;99.90;;;;;;5034695;28;25079;-73
2023/02/27 01:05:09;;;;;;;4.47;1.50;;;2.40;72.70;;;;;;5041817;28;25074;-71
2023/02/27 01:07:36;;;;;;;5.15;1.50;;;2.40;62.00;;;;;;5043423;28;25090;-72
2023/02/27 01:10:02;;;;;;;3.00;1.38;;;2.30;98.80;;;;;;5040091;28;25059;-73
2023/02/27 01:12:28;;;;;;;8.63;1.40;;;2.30;99.90;;;;;;5044578;28;25068;-71
2023/02/27 01:14:53;;;;;;;4.22;1.17;;;2.20;99.90;;;;;;5042302;28;25080;-74
2023/02/27 01:17:19;;;;;;;5.32;1.15;;;2.20;99.90;;;;;;5042246;28;25071;-72
2023/02/27 01:19:44;;;;;;;3.60;1.67;;;2.30;99.90;;;;;;5040377;28;25061;-71
2023/02/27 01:22:11;;;;;;;9.15;1.30;;;2.40;99.90;;;;;;5042256;28;25090;-74
2023/02/27 01:24:36;;;;;;;22.48;1.50;;;2.30;99.90;;;;;;5033257;28;25140;-73
2023/02/27 01:27:02;;;;;;;7.38;1.50;;;2.30;99.90;;;;;;5040916;28;25098;-73
2023/02/27 01:29:27;;;;;;;3.20;1.50;;;2.20;99.90;;;;;;5041925;28;25142;-73
2023/02/27 01:31:53;;;;;;;4.75;1.48;;;2.30;99.90;;;;;;5041423;28;25086;-73
2023/02/27 01:34:18;;;;;;;2.38;1.10;;;2.20;99.90;;;;;;5040717;28;25053;-70
2023/02/27 01:36:44;;;;;;;6.53;1.63;;;2.20;99.90;;;;;;5042189;28;25076;-74
2023/02/27 01:39:11;;;;;;;4.47;1.33;;;2.20;99.90;;;;;;5040139;28;25082;-74
2023/02/27 01:41:36;;;;;;;2.80;1.33;;;2.10;99.90;;;;;;5039437;28;25093;-74
2023/02/27 01:44:08;;;;;;;3.28;1.30;;;2.00;99.90;;;;;;5042229;28;25156;-72
2023/02/27 01:46:35;;;;;;;3.47;1.33;;;2.00;99.90;;;;;;5035086;28;25143;-75
2023/02/27 01:49:06;;;;;;;7.53;1.52;;;2.00;99.90;;;;;;5028944;28;25061;-73
2023/02/27 01:51:36;;;;;;;1.67;1.15;;;2.00;99.90;;;;;;5029927;28;25132;-72
2023/02/27 01:54:04;;;;;;;4.78;1.60;;;1.90;99.90;;;;;;5032565;28;25073;-72
2023/02/27 01:56:31;;;;;;;2.83;1.30;;;1.90;99.90;;;;;;5031317;28;25090;-73
2023/02/27 01:59:05;;;;;;;5.47;1.50;;;1.80;99.90;;;;;;5032187;28;25071;-71
2023/02/27 02:01:32;;;;;;;3.70;1.08;;;1.80;99.90;;;;;;5030919;28;25064;-72
2023/02/27 02:04:16;;;;;;;9.55;1.17;;;1.90;99.90;;;;;;5030914;28;25138;-73
2023/02/27 02:06:46;;;;;;;5.40;2.13;;;1.80;99.90;;;;;;5028835;28;25071;-72
2023/02/27 02:09:14;;;;;;;11.55;1.85;;;1.80;99.90;;;;;;5032228;28;25067;-72
2023/02/27 02:11:41;;;;;;;8.55;1.55;;;1.70;99.90;;;;;;5031606;28;25142;-72
2023/02/27 02:14:09;;;;;;;7.63;1.20;;;1.70;99.90;;;;;;5030754;28;25077;-74
2023/02/27 02:16:58;;;;;;;2.20;1.00;;;1.70;99.90;;;;;;5040299;28;25063;-71
2023/02/27 02:19:43;;;;;;;4.18;1.25;;;1.70;99.90;;;;;;5035891;28;25090;-72
2023/02/27 02:22:23;;;;;;;2.50;1.10;;;1.60;99.90;;;;;;5037396;28;25123;-72
2023/02/27 02:25:07;;;;;;;4.30;1.13;;;1.60;99.90;;;;;;5034826;28;25090;-73
2023/02/27 02:27:33;;;;;;;3.33;1.40;;;1.50;99.90;;;;;;5032307;28;25079;-73
2023/02/27 02:30:32;;;;;;;2.28;1.13;;;1.50;99.90;;;;;;5030151;28;25066;-73
2023/02/27 02:33:51;;;;;;;7.93;1.58;;;1.50;99.90;;;;;;5020595;28;25087;-73
2023/02/27 02:36:55;;;;;;;7.38;1.20;;;1.50;99.90;;;;;;4983401;28;25050;-72
2023/02/27 02:39:45;;;;;;;3.95;1.05;;;1.60;99.90;;;;;;4984529;28;25078;-75
2023/02/27 02:42:37;;;;;;;7.50;1.20;;;1.60;99.90;;;;;;5026286;28;25092;-74
2023/02/27 02:45:20;;;;;;;2.78;1.20;;;1.60;99.90;;;;;;5030775;28;25136;-73
2023/02/27 02:47:55;;;;;;;2.78;1.48;;;1.60;99.90;;;;;;5031240;28;25155;-73
2023/02/27 02:50:43;;;;;;;6.90;1.23;;;1.50;99.90;;;;;;5030075;28;25058;-70
2023/02/27 02:53:15;;;;;;;5.05;1.15;;;1.50;99.90;;;;;;5031872;28;25092;-71
2023/02/27 02:55:50;;;;;;;4.13;1.30;;;1.50;99.90;;;;;;5030002;28;25088;-73
2023/02/27 02:58:32;;;;;;;4.70;1.52;;;1.50;99.90;;;;;;5032261;28;25057;-73
2023/02/27 03:01:08;;;;;;;;;;;1.50;99.90;;;;;;5030833;28;25066;-71
2023/02/27 03:03:37;;;;;;;14.10;1.50;;;1.60;99.90;;;;;;5032262;28;25066;-72
2023/02/27 03:06:09;;;;;;;3.25;1.10;;;1.50;99.90;;;;;;5031787;28;25055;-73
2023/02/27 03:09:17;;;;;;;4.65;1.55;;;1.50;99.90;;;;;;5028326;28;25071;-73
2023/02/27 03:11:47;;;;;;;4.20;1.55;;;1.60;99.90;;;;;;5000078;28;25128;-72
2023/02/27 03:14:24;;;;;;;3.78;1.08;;;1.60;99.90;;;;;;5028787;28;25086;-73
2023/02/27 03:16:53;;;;;;;6.10;1.65;;;1.50;99.90;;;;;;5029083;28;25063;-73
2023/02/27 03:19:27;;;;;;;3.88;1.00;;;1.50;99.90;;;;;;5029563;28;25149;-72
2023/02/27 03:22:00;;;;;;;5.93;1.30;;;1.40;99.90;;;;;;5030460;28;25107;-72
2023/02/27 03:24:33;;;;;;;6.03;1.60;;;1.40;99.90;;;;;;5030412;28;25045;-74
2023/02/27 03:27:01;;;;;;;4.72;2.47;;;1.40;99.90;;;;;;5029608;28;25070;-72
2023/02/27 03:29:53;;;;;;;8.98;1.55;;;1.50;99.90;;;;;;5029267;28;25075;-73
2023/02/27 03:32:28;;;;;;;4.15;1.13;;;1.50;99.90;;;;;;5031137;28;25162;-71
2023/02/27 03:34:54;;;;;;;2.95;1.50;;;1.50;99.90;;;;;;5030706;28;25077;-70
2023/02/27 03:37:22;;;;;;;2.55;1.48;;;1.50;99.90;;;;;;5031338;28;25108;-73
2023/02/27 03:39:54;;;;;;;5.40;1.10;;;1.50;99.90;;;;;;5030343;28;25087;-72
2023/02/27 03:42:30;;;;;;;3.58;1.45;;;1.50;99.90;;;;;;5030189;28;25092;-72
2023/02/27 03:45:36;;;;;;;3.78;1.17;;;1.40;99.90;;;;;;5031038;28;25054;-72
2023/02/27 03:48:03;;;;;;;4.05;1.30;;;1.30;99.90;;;;;;5028731;28;25047;-71
2023/02/27 03:50:29;;;;;;;3.85;1.20;;;1.40;99.90;;;;;;5030698;28;25166;-72
2023/02/27 03:52:55;;;;;;;5.55;1.23;;;1.40;99.90;;;;;;5029904;28;25087;-70
2023/02/27 03:55:26;;;;;;;6.47;1.30;;;1.40;99.90;;;;;;5030312;28;25105;-73
2023/02/27 03:57:52;;;;;;;4.45;1.48;;;1.40;99.90;;;;;;5021106;28;25172;-71
2023/02/27 04:00:21;;;;;;;4.50;1.08;;;1.40;99.90;;;;;;5030210;28;25081;-72
2023/02/27 04:02:52;;;;;;;2.85;0.90;;;1.40;99.90;;;;;;5030837;28;25064;-72
2023/02/27 04:05:19;;;;;;;3.45;1.10;;;1.50;99.90;;;;;;5028456;28;25081;-71
2023/02/27 04:08:39;;;;;;;3.85;1.10;;;1.50;99.90;;;;;;5029429;28;25070;-70
2023/02/27 04:11:20;;;;;;;7.75;2.47;;;1.50;99.90;;;;;;5006217;28;25138;-75
2023/02/27 04:14:13;;;;;;;4.78;1.10;;;1.50;99.90;;;;;;5026676;28;25100;-71
2023/02/27 04:16:45;;;;;;;3.35;1.20;;;1.40;99.90;;;;;;5028984;28;25122;-71
2023/02/27 04:19:10;;;;;;;8.97;1.33;;;1.40;99.90;;;;;;5028881;28;25084;-73
2023/02/27 04:21:55;;;;;;;2.78;1.20;;;1.30;99.90;;;;;;5029457;28;25201;-73
2023/02/27 04:25:00;;;;;;;1.20;0.93;;;1.30;99.90;;;;;;5033713;28;25082;-72
2023/02/27 04:27:47;;;;;;;3.92;1.02;;;1.20;99.90;;;;;;5015844;28;25068;-73
2023/02/27 04:30:46;;;;;;;4.88;1.40;;;1.20;99.90;;;;;;5027569;28;25052;-74
2023/02/27 04:33:30;;;;;;;11.35;1.30;;;1.20;99.90;;;;;;5026575;28;25069;-74
2023/02/27 04:36:03;;;;;;;3.35;1.35;;;1.20;99.90;;;;;;5026939;28;25069;-71
2023/02/27 04:38:53;;;;;;;6.15;1.13;;;1.30;99.90;;;;;;5027337;28;25087;-72
2023/02/27 04:41:23;;;;;;;4.68;1.10;;;1.20;99.90;;;;;;5027335;28;25085;-72
2023/02/27 04:43:52;;;;;;;4.82;1.30;;;1.30;99.90;;;;;;5027975;28;25075;-72
2023/02/27 04:46:22;;;;;;;2.30;1.23;;;1.30;99.90;;;;;;5026370;28;25059;-71
2023/02/27 04:49:08;;;;;;;7.63;1.10;;;1.30;99.90;;;;;;5026141;28;25095;-72
2023/02/27 04:52:04;;;;;;;3.38;1.20;;;1.30;99.90;;;;;;5026616;28;25148;-73
2023/02/27 04:54:38;;;;;;;6.88;1.50;;;1.20;99.90;;;;;;5026036;28;25059;-70
2023/02/27 04:57:09;;;;;;;2.65;1.20;;;1.10;99.90;;;;;;5026609;28;25072;-72
2023/02/27 04:59:45;;;;;;;6.03;1.27;;;1.00;99.90;;;;;;5027462;28;25084;-74
2023/02/27 05:02:23;;;;;;;2.05;1.08;;;1.00;99.90;;;;;;5027348;28;25075;-72
2023/02/27 05:04:52;;;;;;;4.50;1.60;;;1.00;99.90;;;;;;5027656;28;25096;-71
2023/02/27 05:07:21;;;;;;;7.50;1.30;;;1.00;99.90;;;;;;5027111;28;25054;-72
2023/02/27 05:09:59;;;;;;;3.15;1.25;;;0.90;99.90;;;;;;5027364;28;25051;-72
2023/02/27 05:12:28;;;;;;;1.88;0.88;;;0.90;99.90;;;;;;5025762;28;25088;-72
2023/02/27 05:15:24;;;;;;;5.90;1.20;;;0.90;99.90;;;;;;5027066;28;25077;-73
2023/02/27 05:18:07;;;;;;;6.50;1.13;;;0.90;99.90;;;;;;5029845;28;25060;-72
2023/02/27 05:20:42;;;;;;;;;;;1.00;99.90;;;;;;5030467;28;29064;-73
2023/02/27 05:23:23;;;;;;;3.10;1.40;;;0.90;99.90;;;;;;5020048;28;24069;-72
2023/02/27 05:25:57;;;;;;;4.85;1.63;;;0.90;99.90;;;;;;5030982;28;25210;-73
2023/02/27 05:28:33;;;;;;;6.95;1.65;;;0.90;99.90;;;;;;5032709;28;25048;-70
2023/02/27 05:31:09;;;;;;;5.78;2.60;;;0.90;99.90;;;;;;5040582;28;25062;-72
2023/02/27 05:33:45;;;;;;;8.70;2.00;;;0.90;99.90;;;;;;5033055;28;25072;-72
2023/02/27 05:36:17;;;;;;;7.15;1.42;;;0.90;99.90;;;;;;5031116;28;25153;-71
2023/02/27 05:38:50;;;;;;;9.65;1.95;;;1.00;99.90;;;;;;5030183;28;25070;-73
2023/02/27 05:41:23;;;;;;;3.92;1.35;;;1.00;99.90;;;;;;5029534;28;25142;-74
2023/02/27 05:43:55;;;;;;;4.57;1.63;;;1.00;99.90;;;;;;5031242;28;25082;-73
2023/02/27 05:46:26;;;;;;;3.93;1.70;;;1.00;99.90;;;;;;5029439;28;25090;-72
2023/02/27 05:48:58;;;;;;;4.43;1.60;;;1.00;99.90;;;;;;5030309;28;25053;-72
2023/02/27 05:51:28;;;;;;;4.65;1.15;;;0.90;99.90;;;;;;5029281;28;25075;-73
2023/02/27 05:54:01;;;;;;;10.93;1.60;;;0.80;99.90;;;;;;5030223;28;25056;-75
2023/02/27 05:56:29;;;;;;;8.32;1.80;;;0.80;99.90;;;;;;5029152;28;25067;-73
2023/02/27 05:59:01;;;;;;;6.75;1.52;;;0.80;99.90;;;;;;5030167;28;25139;-73
2023/02/27 06:01:26;;;;;;;7.50;1.40;;;0.80;99.90;;;;;;5029058;28;25057;-72
2023/02/27 06:03:52;;;;;;;4.82;1.90;;;0.80;99.90;;;;;;5029590;28;25108;-73
2023/02/27 06:06:18;;;;;;;9.57;1.73;;;0.70;99.90;;;;;;5029893;28;25066;-74
2023/02/27 06:08:45;;;;;;;7.45;1.42;;;0.70;99.90;;;;;;5029482;28;25070;-72
2023/02/27 06:11:12;;;;;;;7.80;1.77;;;0.70;99.90;;;;;;5029841;28;25069;-72
2023/02/27 06:13:37;;;;;;;7.72;1.35;;;0.60;99.90;;;;;;5030213;28;25107;-72
2023/02/27 06:16:03;;;;;;;9.80;1.40;;;0.60;99.90;;;;;;5035385;28;25076;-72
2023/02/27 06:18:28;;;;;;;6.00;1.58;;;0.60;99.90;;;;;;5041180;28;25067;-72
2023/02/27 06:20:54;;;;;;;2.72;1.33;;;0.60;99.90;;;;;;5048031;28;25052;-73
2023/02/27 06:23:20;;;;;;;5.72;1.60;;;0.60;99.90;;;;;;5042904;28;25080;-72
2023/02/27 06:25:46;;;;;;;7.80;1.90;;;0.60;99.90;;;;;;5037656;28;25065;-72
2023/02/27 06:28:12;;;;;;;1.77;1.27;;;0.70;99.90;;;;;;5038090;28;25068;-74
2023/02/27 06:30:38;;;;;;;8.73;1.95;;;0.70;99.90;;;;;;5038470;28;25193;-72
2023/02/27 06:33:04;;;;;;;5.15;1.42;;;0.70;99.90;;;;;;5039253;28;25064;-73
2023/02/27 06:35:30;;;;;;;11.00;2.75;;;0.70;99.90;;;;;;5026966;28;25099;-71
2023/02/27 06:37:56;;;;;;;10.18;2.10;;;0.70;99.90;;;;;;5030210;28;25100;-72
2023/02/27 06:40:22;;;;;;;9.85;1.50;;;0.70;99.90;;;;;;5028229;28;25062;-72
2023/02/27 06:42:48;;;;;;;8.90;1.63;;;0.70;99.90;;;;;;5030401;28;25084;-72
2023/02/27 06:45:15;;;;;;;5.72;1.55;;;0.70;99.90;;;;;;5017214;28;25097;-71
2023/02/27 06:47:41;;;;;;;6.63;1.73;;;0.80;99.90;;;;;;5029098;28;25062;-72
2023/02/27 06:50:10;;;;;;;11.23;1.80;;;0.70;99.90;;;;;;5028586;28;25058;-73
2023/02/27 06:52:36;;;;;;;7.78;1.90;;;0.70;99.90;;;;;;5028547;28;25076;-73
2023/02/27 06:55:01;;;;;;;5.35;2.35;;;0.70;99.90;;;;;;5017793;28;25049;-72
2023/02/27 06:57:27;;;;;;;7.53;1.67;;;0.70;99.90;;;;;;5029791;28;25072;-72
2023/02/27 06:59:52;;;;;;;8.95;2.30;;;0.70;99.90;;;;;;5021462;28;25181;-72
2023/02/27 07:02:18;;;;;;;14.50;2.40;;;0.70;99.90;;;;;;5029373;28;25110;-73
2023/02/27 07:04:44;;;;;;;5.43;1.65;;;0.70;99.90;;;;;;5032275;28;25088;-72
2023/02/27 07:07:09;;;;;;;8.88;1.75;;;0.70;99.90;;;;;;5017955;28;25061;-74
2023/02/27 07:09:36;;;;;;;7.45;2.05;;;0.70;99.90;;;;;;5029549;28;25096;-71
2023/02/27 07:12:03;;;;;;;3.30;1.38;;;0.70;99.90;;;;;;5030763;28;25087;-72
2023/02/27 07:14:29;;;;;;;6.10;2.25;;;0.70;99.90;;;;;;5029850;28;25087;-73
2023/02/27 07:16:54;;;;;;;10.63;2.05;;;0.70;99.90;;;;;;5028228;28;25082;-72
2023/02/27 07:19:21;;;;;;;9.70;2.00;;;0.80;99.90;;;;;;5027816;28;25077;-71
2023/02/27 07:21:46;;;;;;;12.25;2.88;;;0.80;99.90;;;;;;5029510;28;25055;-71
2023/02/27 07:24:12;;;;;;;13.75;2.40;;;0.90;99.90;;;;;;5029723;28;25120;-75
2023/02/27 07:26:37;;;;;;;4.18;1.40;;;0.90;99.90;;;;;;5030345;28;25059;-73
2023/02/27 07:29:03;;;;;;;5.72;2.17;;;1.00;99.90;;;;;;5029100;28;25147;-72
2023/02/27 07:31:31;;;;;;;5.65;1.92;;;1.10;99.90;;;;;;5029388;28;25071;-71
2023/02/27 07:33:56;;;;;;;6.65;1.15;;;1.10;99.90;;;;;;5031088;28;25152;-73
2023/02/27 07:36:22;;;;;;;4.15;1.38;;;1.20;99.90;;;;;;5031557;28;25077;-74
2023/02/27 07:38:47;;;;;;;5.70;1.30;;;1.20;99.90;;;;;;5030530;28;25082;-72
2023/02/27 07:41:13;;;;;;;5.55;1.40;;;1.20;99.90;;;;;;5031175;28;25079;-72
2023/02/27 07:43:39;;;;;;;3.63;1.05;;;1.30;99.90;;;;;;5026957;28;25057;-73
2023/02/27 07:46:04;;;;;;;3.75;1.48;;;1.30;99.90;;;;;;5029888;28;25158;-72
2023/02/27 07:48:31;;;;;;;3.30;1.30;;;1.40;99.90;;;;;;5030825;28;25098;-71
2023/02/27 07:50:57;;;;;;;2.85;0.98;;;1.30;99.90;;;;;;5027781;28;25082;-73
2023/02/27 07:53:23;;;;;;;4.13;1.40;;;1.40;99.90;;;;;;5028887;28;25115;-75
2023/02/27 07:55:50;;;;;;;7.47;1.67;;;1.50;99.90;;;;;;5019338;28;25062;-74
2023/02/27 07:58:15;;;;;;;3.78;1.67;;;1.50;99.90;;;;;;5026928;28;25067;-74
2023/02/27 08:00:41;;;;;;;3.03;1.40;;;1.50;99.90;;;;;;5026528;28;25152;-75
2023/02/27 08:03:08;;;;;;;5.20;1.75;;;1.50;99.90;;;;;;5028956;28;25070;-75
2023/02/27 08:05:34;;;;;;;4.82;1.25;;;1.60;99.90;;;;;;5030194;28;25062;-73
2023/02/27 08:08:00;;;;;;;4.82;2.25;;;1.70;99.90;;;;;;5029273;28;25141;-74
2023/02/27 08:10:25;;;;;;;5.93;1.90;;;1.80;99.90;;;;;;5026334;28;25055;-74
2023/02/27 08:12:51;;;;;;;7.28;2.15;;;1.80;99.90;;;;;;5027326;28;25059;-72
2023/02/27 08:15:17;;;;;;;4.65;1.60;;;1.80;99.90;;;;;;5027193;28;25165;-74
2023/02/27 08:17:44;;;;;;;7.72;1.85;;;1.90;99.90;;;;;;5027235;28;25072;-73
2023/02/27 08:20:12;;;;;;;2.65;1.60;;;2.00;99.90;;;;;;5027507;28;25138;-72
2023/02/27 08:22:38;;;;;;;6.80;1.55;;;2.10;99.90;;;;;;5025464;28;25130;-72
2023/02/27 08:25:06;;;;;;;7.47;2.10;;;2.20;99.90;;;;;;5017114;28;25054;-73
2023/02/27 08:27:34;;;;;;;9.77;1.70;;;2.30;99.90;;;;;;5028686;28;25088;-72
2023/02/27 08:30:00;;;;;;;6.47;1.85;;;2.40;99.90;;;;;;5028659;28;25113;-74
2023/02/27 08:32:26;;;;;;;4.65;1.38;;;2.40;99.90;;;;;;5028930;28;25083;-72
2023/02/27 08:34:52;;;;;;;5.93;1.77;;;2.60;99.90;;;;;;5028836;28;25059;-74
2023/02/27 08:37:18;;;;;;;7.68;1.50;;;2.60;99.90;;;;;;5032459;28;25056;-74
2023/02/27 08:39:43;;;;;;;3.20;1.45;;;2.70;99.90;;;;;;5034990;28;25079;-72
2023/02/27 08:42:09;;;;;;;3.30;1.00;;;2.80;99.90;;;;;;5045140;28;25044;-73
2023/02/27 08:44:34;;;;;;;5.80;1.77;;;2.90;1.00;;;;;;5031759;28;25062;-72
2023/02/27 08:47:00;;;;;;;4.78;1.73;;;3.00;1.00;;;;;;5030644;28;25080;-72
2023/02/27 08:49:26;;;;;;;5.72;1.23;;;3.10;99.90;;;;;;5028464;28;25075;-76
2023/02/27 08:51:52;;;;;;;5.60;1.95;;;3.20;99.90;;;;;;5029174;28;25094;-74
2023/02/27 08:54:19;;;;;;;6.75;2.45;;;3.30;99.90;;;;;;5026076;28;25062;-73
2023/02/27 08:56:46;;;;;;;7.55;2.05;;;3.20;33.00;;;;;;5028365;28;25147;-71
2023/02/27 08:59:12;;;;;;;9.73;1.67;;;3.20;29.70;;;;;;5026305;28;25047;-71
2023/02/27 09:01:38;;;;;;;6.22;1.52;;;3.40;1.00;;;;;;5028846;28;25079;-72
2023/02/27 09:04:06;;;;;;;4.68;1.27;;;3.60;99.90;;;;;;5025209;28;25054;-73
2023/02/27 09:06:34;;;;;;;4.82;1.30;;;3.70;99.90;;;;;;5028119;28;25144;-73
2023/02/27 09:09:00;;;;;;;10.68;1.67;;;3.70;99.90;;;;;;5016659;28;25097;-76
2023/02/27 09:11:27;;;;;;;7.72;1.35;;;3.80;99.90;;;;;;5027971;28;25077;-73
2023/02/27 09:13:53;;;;;;;9.10;1.88;;;3.90;99.90;;;;;;5030022;28;25133;-73
2023/02/27 09:16:20;;;;;;;10.38;1.50;;;3.80;99.90;;;;;;5032172;28;25106;-72
2023/02/27 09:18:46;;;;;;;8.80;1.70;;;4.00;99.90;;;;;;5025891;28;25059;-75
2023/02/27 09:21:13;;;;;;;10.30;2.17;;;4.10;60.20;;;;;;5017098;28;25059;-73
2023/02/27 09:23:39;;;;;;;1.95;1.50;;;4.10;1.00;;;;;;5014860;28;25064;-73
2023/02/27 09:26:05;;;;;;;5.35;1.42;;;4.20;17.00;;;;;;5024572;28;25071;-72
2023/02/27 09:28:31;;;;;;;7.18;1.27;;;4.30;1.00;;;;;;5024512;28;25077;-73
2023/02/27 09:31:01;;;;;;;4.75;2.63;;;4.50;1.00;;;;;;5025751;28;25080;-73
2023/02/27 09:33:27;;;;;;;2.65;1.30;;;4.20;99.90;;;;;;5023419;28;25074;-73
2023/02/27 09:35:54;;;;;;;6.85;1.50;;;4.30;1.00;;;;;;5024480;28;25142;-72
2023/02/27 09:38:19;;;;;;;8.18;1.50;;;4.50;1.00;;;;;;5017225;28;25066;-74
2023/02/27 09:40:48;;;;;;;5.43;1.85;;;4.60;1.00;;;;;;5024637;28;25078;-73
2023/02/27 09:43:25;;;;;;;7.35;1.67;;;4.80;1.00;;;;;;5024419;28;25052;-75
2023/02/27 09:45:54;;;;;;;2.50;1.23;;;4.70;99.90;;;;;;5016505;28;25056;-75
2023/02/27 09:48:47;;;;;;;1.65;1.25;;;4.30;99.90;;;;;;5023379;28;25055;-72
2023/02/27 09:51:15;;;;;;;8.02;1.42;;;4.20;99.90;;;;;;5027574;28;25106;-74
2023/02/27 09:53:45;;;;;;;7.78;1.30;;;4.10;99.90;;;;;;5028321;28;25067;-75
2023/02/27 09:56:28;;;;;;;6.93;1.77;;;4.30;99.90;;;;;;5015209;28;25126;-74
2023/02/27 09:58:58;;;;;;;;;;;4.40;99.90;;;;;;5016346;28;25129;-74
2023/02/27 10:01:32;;;;;;;3.25;0.98;;;4.70;99.90;;;;;;5026652;28;24088;-75
2023/02/27 10:04:28;;;;;;;4.38;1.30;;;4.70;99.90;;;;;;5018437;28;25053;-76
2023/02/27 10:07:26;;;;;;;2.60;1.10;;;4.80;99.90;;;;;;5033057;28;25076;-73
2023/02/27 10:10:06;;;;;;;2.50;0.95;;;5.00;99.90;;;;;;5029114;28;25064;-76
2023/02/27 10:12:53;;;;;;;4.78;1.38;;;5.20;99.90;;;;;;5029835;28;25069;-74
2023/02/27 10:15:50;;;;;;;5.20;1.38;;;5.20;99.90;;;;;;5030850;28;25062;-77
2023/02/27 10:18:23;;;;;;;2.35;1.17;;;5.20;99.90;;;;;;5031597;28;25129;-73
2023/02/27 10:21:03;;;;;;;12.23;2.42;;;5.30;99.90;;;;;;5029360;28;25065;-77
2023/02/27 10:23:41;;;;;;;4.45;1.20;;;5.20;99.90;;;;;;5028568;28;25057;-73
2023/02/27 10:26:17;;;;;;;2.95;0.95;;;5.20;99.90;;;;;;5029935;28;25061;-73
2023/02/27 10:28:43;;;;;;;6.63;1.45;;;5.20;99.90;;;;;;5033156;28;25122;-75
2023/02/27 10:31:19;;;;;;;5.70;1.25;;;5.30;99.90;;;;;;5033760;28;25083;-75
2023/02/27 10:33:47;;;;;;;3.58;0.93;;;5.40;99.90;;;;;;5032064;28;25058;-75
2023/02/27 10:36:14;;;;;;;2.55;1.20;;;5.60;99.90;;;;;;5031926;28;25135;-74
2023/02/27 10:38:47;;;;;;;3.05;0.90;;;5.70;99.90;;;;;;5031469;28;25095;-73
2023/02/27 10:41:15;;;;;;;1.08;0.73;;;5.30;99.90;;;;;;5021530;28;25055;-75
2023/02/27 10:43:41;;;;;;;1.77;0.93;;;5.20;99.90;;;;;;5030553;28;25080;-75
2023/02/27 10:46:17;;;;;;;2.72;1.00;;;5.20;99.90;;;;;;5017865;28;25068;-76
2023/02/27 10:48:45;;;;;;;1.45;0.70;;;5.20;99.90;;;;;;5032308;28;25094;-75
2023/02/27 10:51:35;;;;;;;3.42;0.68;;;5.40;99.90;;;;;;5036003;28;25135;-75
2023/02/27 10:54:23;;;;;;;7.25;1.25;;;5.70;99.90;;;;;;5030601;28;25080;-78
2023/02/27 10:57:20;;;;;;;3.58;1.10;;;5.60;99.90;;;;;;5030337;28;25066;-75
2023/02/27 10:59:57;;;;;;;3.70;0.93;;;5.70;99.90;;;;;;5005470;28;25182;-76
2023/02/27 11:02:41;;;;;;;2.22;0.68;;;5.80;99.90;;;;;;5029585;28;25090;-74
2023/02/27 11:05:22;;;;;;;3.00;0.90;;;5.90;99.90;;;;;;5029766;28;25057;-76
2023/02/27 11:07:48;;;;;;;4.05;1.40;;;5.70;99.90;;;;;;5031844;28;25107;-76
2023/02/27 11:10:17;;;;;;;2.30;1.08;;;5.70;92.50;;;;;;5031156;28;25165;-75
2023/02/27 11:13:04;;;;;;;1.98;1.05;;;5.90;91.20;;;;;;5033001;28;25091;-75
2023/02/27 11:15:36;;;;;;;2.45;0.88;;;6.10;78.60;;;;;;5031385;28;25145;-75
2023/02/27 11:18:28;;;;;;;5.90;0.85;;;6.10;66.30;;;;;;5018308;28;25056;-75
2023/02/27 11:21:14;;;;;;;3.55;0.82;;;6.00;69.80;;;;;;5030606;28;25054;-77
2023/02/27 11:24:02;;;;;;;2.95;1.10;;;6.50;56.00;;;;;;5032079;28;25078;-77
2023/02/27 11:26:35;;;;;;;7.85;1.30;;;6.40;39.80;;;;;;5031242;28;25052;-75
2023/02/27 11:29:16;;;;;;;5.45;2.55;;;6.40;43.30;;;;;;5031088;28;25098;-75
2023/02/27 11:32:02;;;;;;;4.73;0.93;;;6.60;22.00;;;;;;5030266;28;25077;-76
2023/02/27 11:34:45;;;;;;;4.82;1.02;;;6.90;17.20;;;;;;5015814;28;25102;-74
2023/02/27 11:37:32;;;;;;;2.35;0.90;;;6.80;9.20;;;;;;5029300;28;25072;-74
2023/02/27 11:40:09;;;;;;;3.60;0.90;;;7.20;6.00;;;;;;5019747;28;25089;-78
2023/02/27 11:42:40;;;;;;;3.28;1.23;;;7.10;7.10;;;;;;5029090;28;25202;-77
2023/02/27 11:45:24;;;;;;;1.20;0.80;;;6.50;1.00;;;;;;5031062;28;25099;-76
2023/02/27 11:47:53;;;;;;;1.88;0.90;;;6.40;2.80;;;;;;5029895;28;25140;-78
2023/02/27 11:50:30;;;;;;;3.42;0.80;;;6.20;3.10;;;;;;5030412;28;25063;-73
2023/02/27 11:53:08;;;;;;;3.28;0.80;;;6.10;1.00;;;;;;5038491;28;25128;-75
2023/02/27 11:55:35;;;;;;;6.18;1.15;;;6.70;1.00;;;;;;5045322;28;25059;-76
2023/02/27 11:58:13;;;;;;;1.27;0.88;;;7.10;1.00;;;;;;5039480;28;25052;-74
2023/02/27 12:00:45;;;;;;;2.05;0.80;;;7.50;1.00;;;;;;5030621;28;25058;-74
2023/02/27 12:03:47;;;;;;;2.10;0.90;;;7.30;1.00;;;;;;5035058;28;25092;-76
2023/02/27 12:06:27;;;;;;;2.13;1.00;;;6.70;1.00;;;;;;5036133;28;25068;-74
2023/02/27 12:09:05;;;;;;;5.47;0.85;;;7.20;1.00;;;;;;5027985;28;25071;-75
2023/02/27 12:11:44;;;;;;;3.85;1.05;;;7.40;1.00;;;;;;5033620;28;25096;-75
2023/02/27 12:14:23;;;;;;;6.25;1.00;;;7.50;1.00;;;;;;5032434;28;25060;-76
2023/02/27 12:17:01;;;;;;;3.50;1.08;;;6.80;1.00;;;;;;5032478;28;25079;-78
2023/02/27 12:19:36;;;;;;;5.00;0.90;;;7.00;1.00;;;;;;5032493;28;25077;-75
2023/02/27 12:22:08;;;;;;;2.47;0.88;;;7.40;1.00;;;;;;5030184;28;25078;-76
2023/02/27 12:24:39;;;;;;;;;;;7.20;1.00;;;;;;5030590;28;25111;-74
2023/02/27 12:27:20;;;;;;;1.58;0.80;;;7.60;1.00;;;;;;5028108;28;24069;-78
2023/02/27 12:29:59;;;;;;;2.75;0.82;;;7.90;1.00;;;;;;5030549;28;25066;-77
2023/02/27 12:32:39;;;;;;;3.50;0.93;;;8.10;1.00;;;;;;5027885;28;25077;-77
2023/02/27 12:35:22;;;;;;;3.60;0.98;;;7.50;1.00;;;;;;5029879;28;25109;-78
2023/02/27 12:37:48;;;;;;;5.85;1.10;;;7.30;1.00;;;;;;5029376;28;25070;-75
2023/02/27 12:40:17;;;;;;;0.75;0.75;;;6.80;1.00;;;;;;5028352;28;25091;-75
2023/02/27 12:43:07;;;;;;;5.72;1.15;;;6.60;1.00;;;;;;5029032;28;25121;-79
2023/02/27 12:45:42;;;;;;;2.30;0.80;;;6.40;1.00;;;;;;5027278;28;25104;-74
2023/02/27 12:48:35;;;;;;;4.70;1.13;;;6.00;1.00;;;;;;5019230;28;25117;-75
2023/02/27 12:51:18;;;;;;;2.60;0.90;;;6.00;1.00;;;;;;5032756;28;25074;-77
2023/02/27 12:53:52;;;;;;;;;;;6.30;1.00;;;;;;5035765;28;25179;-78
2023/02/27 12:56:22;;;;;;;5.78;1.40;;;6.80;1.00;;;;;;5036170;28;25136;-76
2023/02/27 12:59:06;;;;;;;2.58;0.90;;;6.90;1.00;;;;;;5020339;28;25110;-75
2023/02/27 13:01:45;;;;;;;5.50;1.10;;;7.00;1.00;;;;;;5030452;28;25095;-78
2023/02/27 13:04:37;;;;;;;5.93;0.98;;;7.80;1.00;;;;;;5021990;28;25040;-76
2023/02/27 13:07:17;;;;;;;1.80;1.63;;;7.60;1.00;;;;;;5021804;28;25051;-78
2023/02/27 13:10:22;;;;;;;2.10;1.10;;;6.80;1.00;;;;;;5022547;28;25122;-77
2023/02/27 13:12:55;;;;;;;4.32;1.20;;;6.50;1.00;;;;;;5014053;28;25074;-75
2023/02/27 13:15:37;;;;;;;3.78;1.00;;;6.60;1.00;;;;;;5023367;28;25095;-78
2023/02/27 13:18:36;;;;;;;3.05;0.85;;;7.10;1.00;;;;;;5014407;28;25054;-74
2023/02/27 13:21:35;;;;;;;4.35;1.42;;;7.30;1.00;;;;;;5024655;28;25051;-77
2023/02/27 13:24:29;;;;;;;2.50;0.90;;;7.30;1.00;;;;;;5024153;28;25061;-73
2023/02/27 13:27:03;;;;;;;1.38;1.27;;;7.30;1.00;;;;;;5023830;28;25071;-74
2023/02/27 13:29:39;;;;;;;1.88;1.10;;;7.40;1.00;;;;;;5019394;28;25073;-76
2023/02/27 13:32:21;;;;;;;2.13;0.82;;;7.90;1.00;;;;;;5019418;28;25131;-76